Dernières infos :  

21/04/2017  Mise à jour des tableaux d'analyses décadaires : rubrique climatologie
10/04/2017 Second record de chaleur en 24H pour une 1ère décade d'avril : 
CLIQUEZ ICI
02/04/2017  Mise à jour des tableaux d'analyses décadaires, mensuelles et annuelles : rubrique climatologie
02/04/2017 Mise en ligne de la synthèse climatologique de Mars 2017 : 
CLIQUEZ ICI   

Si l'entête du tableau ne s'affiche pas correctement, => actualisez la page (F5 avec Internet Explorer, Chrome...).
Utilisez l'ascenseur sur la droite des lignes du tableau pour faire défiler verticalement les jours du mois.

TABLEAU DES DONNEES COMPLETES NOAA d'OCTOBRE 2016

DATE TEMPERATURE
sous abri
TEMPARATURE 
au sol
VENT  et  Indice de Refroidissement Eolien  PRECIPITATIONS (en mm/m2)
et Intensité
PRESSION ATMOSPHERIQUE (en hPa) HUMIDITE de l'AIR RADIATIONS SOLAIRES (en W/m2)
Mini Moy. Maxi Mini Moy. Maxi Moyen Rafale I.R.E.
Minii
Précip. jour Cumul mois Intensité Maxi Mini Moy. Maxi Mini Moy. Maxi Pic maxi du jour Total jour
01/10/2016 14.6° 16.8° 19.2° 12.8° 16.2° 21.1° 6km/h dir SSE 37km/h dir SSE 14.2° 9.8 9.8 9.8mm/h 1010.5 1012.4 1014.1 72% 84.4% 94% 608 13 897
02/10/2016 7.8° 14.2° 18.6° 4.4° 14.2° 26.7° 2.7km/h dir ONO 19.3km/h dir O 7.8° 0.8 10.6 1mm/h 1014.1 1017.3 1021.9 58% 83.2% 96% 965 36 408
03/10/2016 3.7° 11.1° 18.8° 1.7° 11.1° 26.1° 6.3km/h dir NO 30.6km/h dir NO 3.7° 0.2 10.8 1021.9 1024.3 1026 54% 79.9% 96% 652 50 607
04/10/2016 3.1° 10.6° 19.6° 0.6° 10.9° 28.3° 3.4km/h dir NO 22.5km/h dir ONO 3.1° 0 10.8 1022 1023.7 1025.1 61% 83.6% 96% 649 44 546
05/10/2016 10.2° 17.8° 2.8° 10.3° 25.6° 4.3km/h dir NO 22.5km/h dir NO 0.2 11 1017.4 1020.8 1023.1 63% 85.3% 96% 686 36 552
06/10/2016 1.7° 14.4° -0.6° 8.1° 23.3° 2.4km/h dir ONO 16.1km/h dir N 1.4° 0 11 1012.9 1015.1 1017.3 58% 80.6% 95% 703 42 901
07/10/2016 2.3° 8.2° 15.7° 8.8° 24.4° 2.1km/h dir SSE 14.5km/h dir ENE 2.4° 0 11 1014.2 1015.5 1016.9 65% 86.9% 96% 740 40 953
08/10/2016 4.9° 8.4° 14.3° 2.2° 8.1° 21.1° 2.9km/h dir NNE 14.5km/h dir NNE 4.9° 0.2 11.2 1016.9 1019.4 1021.7 73% 90.1% 96% 647 19 757
09/10/2016 3.7° 7.3° 12.6° 6.9° 18.9° 5km/h dir ONO 20.9km/h dir N 3.7° 0.2 11.4 1021.1 1022.4 1023.6 72% 89.8% 96% 754 21 706
10/10/2016 2.1° 5.9° 11.9° -1.1° 6.1° 19.4° 3.5km/h dir NO 20.9km/h dir NO 1.2° 0 11.4 1018.7 1021.4 1023.3 72% 89.2% 96% 738 27 440
11/10/2016 1.3° 7.2° 14° -1.1° 7.4° 21.7° 6.9km/h dir NO 35.4km/h dir N 1.3° 0.2 11.6 1015 1016.5 1018.7 54% 83.1% 96% 649 35 079
12/10/2016 -1° 5.6° 12.8° -3.3° 5.9° 22.8° 2.1km/h dir SSE 12.9km/h dir NNE -1° 0.2 11.8 1011.4 1014 1015.7 61% 85.6% 96% 772 35 774
13/10/2016 7.3° 9.1° 10.4° 7.2° 9.3° 12.2° 1.9km/h dir ONO 11.3km/h dir O 23.8 35.6 14.4mm/h 1005.5 1007.8 1011.4 90% 94.2% 96% 123 6 421
14/10/2016 9.8° 11° 13.2° 7.2° 10.8° 13.9° 3.9km/h dir S 27.4km/h dir SSE 8.5° 41.6 77.2 35.4mm/h 1001.1 1003.5 1006.3 95% 96.6% 97% 237 6 967
15/10/2016 8.3° 13.6° 19.4° 5.6° 13.7° 26.1° 3.7km/h dir ENE 25.7km/h dir S 8.4° 0.2 77.4 1006.4 1013.4 1017.6 62% 84% 95% 705 39 772
16/10/2016 5.5° 12.8° 20.1° 3.3° 12.3° 22.8° 4.7km/h dir SSE 30.6km/h dir SSE 5.5° 0.2 77.6 1017.7 1019.2 1021.1 67% 84.9% 97% 605 28 252
17/10/2016 13.3° 15.4° 17.7° 11.7° 15° 21.1° 2.4km/h dir SO 16.1km/h dir SE 13.3° 0.4 78 1020.8 1022.1 1023.5 82% 89.8% 95% 552 16 455
18/10/2016 8.3° 12.9° 17.7° 5.6° 12.7° 23.3° 2.3km/h dir NO 14.5km/h dir NNE 8.4° 3.8 81.8 47mm/h 1023.3 1024.3 1025.7 62% 88.4% 97% 684 31 382
19/10/2016 10.3° 13.2° 10.2° 18.3° 1.9km/h dir NE 14.5km/h dir NNE 1.6 83.4 4.2mm/h 1019.7 1021.7 1024 73% 88.7% 96% 714 16 851
20/10/2016 6.6° 9.7° 13.9° 3.9° 10.1° 20.6° 3.9km/h dir ONO 24.1km/h dir NO 6.6° 0 83.4 1016.4 1017.5 1019.8 64% 86.5% 96% 735 35 035
21/10/2016 4.4° 8.9° 12.9° 1.7° 8.5° 21.7° 2.4km/h dir SE 16.1km/h dir NO 4.6° 2.6 86 18.4mm/h 1015.3 1016.3 1017 81% 91.4% 96% 826 17 332
22/10/2016 1.1° 5.4° 12.6° 5.6° 17.2° 1.6km/h dir SSO 11.3km/h dir O 0.3° 0.2 86.2 1011.8 1014.2 1016.4 72% 90.9% 97% 788 34 266
23/10/2016 5.7° 11.6° 15.7° 5.6° 11.4° 15.6° 5km/h dir SSE 30.6km/h dir SE 5.7° 1 87.2 1007.7 1009.1 1011.8 81% 89.9% 95% 418 11 560
24/10/2016 11.8° 16.9° 23.2° 9.4° 16° 23.9° 6.8km/h dir S 38.6km/h dir SSE 11.9° 11.8 99 34.2mm/h 1009 1011.1 1017.8 63% 82% 94% 547 22 629
25/10/2016 13.4° 14.3° 15.7° 13.3° 14.1° 16.1° 2.7km/h dir ONO 19.3km/h dir ENE 13.2° 20.4 119.4 63mm/h 1016.1 1020 1023.5 93% 95.5% 96% 297 8 562
26/10/2016 11.6° 12.9° 14.4° 11.1° 13° 14.4° 6.6km/h dir NO 20.9km/h dir NO 10.6° 3.6 123 3.2mm/h 1022.4 1025.2 1029.2 93% 95.4% 97% 250 7 314
27/10/2016 5.4° 9.6° 13.7° 2.8° 9.1° 15° 5.1km/h dir ONO 19.3km/h dir NO 5.4° 0 123 1028.9 1031.1 1032.9 84% 93.6% 97% 272 10 722
28/10/2016 5.3° 8.6° 10.4° 3.9° 8.7° 11.1° 2.9km/h dir O 16.1km/h dir ONO 5.3° 0.4 123.4 1032.1 1033.7 1035.1 90% 95.2% 97% 113 6 778
29/10/2016 7.3° 8.3° 9.2° 7.8° 8.5° 9.4° 3.4km/h dir NO 16.1km/h dir NO 5.8° 0.2 123.6 1028.3 1031.6 1034.2 93% 95.4% 96% 125 6 140
30/10/2016 8.4° 9.2° 10.1° 8.3° 9.2° 10.6° 1.8km/h dir SE 11.3km/h dir ESE 8.2° 0.2 123.8 1025.2 1026.4 1028.4 90% 93.9% 97% 97 5 957
31/10/2016 7.5° 8.1° 8.9° 7.2° 8.2° 10° 1.8km/h dir ESE 11.3km/h dir 0 7.3° 0 123.8 1024.5 1025 1025.6 93% 95.6% 97% 105 6 439

RETOUR ACCUEIL


Date de création : 04/11/2016 : 22:19
Catégorie : ARCHIVES 2002 à 2016 - ANNEES 2010 à 2019 - ANNEE 2016 - OCTOBRE 2016
Page lue 344 fois


Réactions à cet article

Personne n'a encore laissé de commentaire.
Soyez donc le premier !